createdAt,value
2023-06-17T00:01:15.961Z,14.67
2023-06-17T00:03:44.474Z,14.51
2023-06-17T00:06:12.250Z,14.39
2023-06-17T00:08:39.941Z,14.51
2023-06-17T00:11:07.821Z,14.69
2023-06-17T00:13:35.465Z,14.69
2023-06-17T00:16:03.167Z,14.64
2023-06-17T00:18:31.221Z,14.71
2023-06-17T00:20:59.099Z,14.70
2023-06-17T00:23:27.090Z,14.59
2023-06-17T00:25:55.001Z,14.49
2023-06-17T00:28:22.689Z,14.49
2023-06-17T00:30:53.283Z,14.50
2023-06-17T00:33:23.615Z,14.48
2023-06-17T00:35:52.987Z,14.54
2023-06-17T00:38:23.001Z,14.46
2023-06-17T00:40:50.638Z,14.51
2023-06-17T00:43:18.283Z,14.50
2023-06-17T00:45:47.166Z,14.50
2023-06-17T00:48:14.944Z,14.32
2023-06-17T00:50:42.677Z,14.43
2023-06-17T00:53:11.375Z,14.26
2023-06-17T00:55:39.052Z,14.22
2023-06-17T00:58:06.776Z,14.40
2023-06-17T01:00:34.720Z,14.26
2023-06-17T01:03:03.505Z,14.45
2023-06-17T01:05:31.405Z,14.49
2023-06-17T01:08:40.870Z,14.37
2023-06-17T01:11:14.819Z,14.30
2023-06-17T01:13:43.675Z,14.18
2023-06-17T01:16:12.398Z,14.18
2023-06-17T01:18:40.551Z,14.18
2023-06-17T01:21:09.384Z,14.28
2023-06-17T01:23:37.327Z,14.22
2023-06-17T01:26:05.368Z,14.12
2023-06-17T01:28:33.956Z,14.06
2023-06-17T01:31:01.865Z,14.31
2023-06-17T01:33:30.000Z,14.25
2023-06-17T01:36:05.066Z,14.09
2023-06-17T01:38:44.528Z,14.02
2023-06-17T01:41:19.250Z,14.18
2023-06-17T01:43:48.645Z,14.12
2023-06-17T01:46:16.952Z,13.99
2023-06-17T01:48:44.781Z,13.94
2023-06-17T01:51:12.671Z,13.93
2023-06-17T01:53:40.523Z,14.12
2023-06-17T01:56:08.408Z,14.37
2023-06-17T01:58:36.818Z,14.42
2023-06-17T02:01:04.909Z,14.31
2023-06-17T02:03:33.201Z,14.16
2023-06-17T02:06:00.938Z,14.08
2023-06-17T02:08:28.580Z,14.11
2023-06-17T02:10:56.542Z,13.99
2023-06-17T02:13:25.588Z,13.93
2023-06-17T02:15:53.372Z,13.87
2023-06-17T02:18:21.363Z,13.87
2023-06-17T02:20:49.390Z,13.77
2023-06-17T02:23:17.151Z,13.85
2023-06-17T02:25:44.711Z,13.85
2023-06-17T02:28:12.678Z,13.73
2023-06-17T02:30:40.408Z,13.73
2023-06-17T02:33:08.153Z,13.79
2023-06-17T02:35:36.077Z,13.91
2023-06-17T02:38:03.817Z,13.85
2023-06-17T02:40:31.562Z,13.77
2023-06-17T02:42:59.568Z,13.78
2023-06-17T02:45:27.382Z,13.81
2023-06-17T02:47:55.132Z,13.92
2023-06-17T02:50:23.718Z,13.86
2023-06-17T02:52:51.595Z,13.90
2023-06-17T02:55:19.269Z,13.86
2023-06-17T02:57:47.208Z,13.89
2023-06-17T03:00:15.249Z,14.07
2023-06-17T03:02:43.086Z,13.97
2023-06-17T03:05:11.148Z,14.06
2023-06-17T03:07:39.442Z,14.00
2023-06-17T03:10:07.880Z,14.17
2023-06-17T03:12:37.378Z,14.07
2023-06-17T03:15:05.986Z,13.95
2023-06-17T03:17:34.087Z,13.84
2023-06-17T03:20:02.187Z,13.87
2023-06-17T03:22:29.920Z,13.95
2023-06-17T03:24:57.890Z,13.89
2023-06-17T03:27:25.817Z,14.01
2023-06-17T03:29:53.620Z,13.81
2023-06-17T03:32:21.234Z,13.75
2023-06-17T03:34:49.713Z,14.01
2023-06-17T03:37:17.598Z,13.90
2023-06-17T03:39:45.228Z,13.92
2023-06-17T03:42:16.542Z,13.95
2023-06-17T03:44:44.779Z,14.03
2023-06-17T03:47:12.494Z,13.90
2023-06-17T03:49:41.035Z,14.08
2023-06-17T03:52:09.576Z,14.00
2023-06-17T03:54:37.291Z,14.16
2023-06-17T03:57:05.499Z,13.93
2023-06-17T03:59:33.336Z,13.99
2023-06-17T04:02:01.049Z,14.07
2023-06-17T04:04:29.141Z,14.04
2023-06-17T04:06:56.762Z,13.96
2023-06-17T04:09:24.449Z,14.14
2023-06-17T04:11:52.647Z,14.33
2023-06-17T04:14:20.302Z,14.13
2023-06-17T04:16:48.130Z,14.36
2023-06-17T04:19:16.716Z,14.23
2023-06-17T04:21:44.974Z,14.16
2023-06-17T04:24:12.900Z,14.48
2023-06-17T04:26:40.858Z,14.46
2023-06-17T04:29:08.935Z,14.69
2023-06-17T04:31:36.497Z,14.55
2023-06-17T04:34:04.685Z,14.60
2023-06-17T04:36:32.541Z,14.59
2023-06-17T04:39:00.494Z,14.81
2023-06-17T04:41:28.496Z,14.84
2023-06-17T04:43:56.182Z,14.78
2023-06-17T04:46:23.986Z,14.79
2023-06-17T04:48:52.395Z,14.94
2023-06-17T04:51:20.036Z,14.91
2023-06-17T04:53:47.778Z,15.06
2023-06-17T04:56:15.819Z,15.15
2023-06-17T04:58:43.643Z,15.12
2023-06-17T05:01:11.425Z,15.00
2023-06-17T05:03:39.417Z,14.90
2023-06-17T05:06:08.108Z,15.03
2023-06-17T05:08:35.959Z,15.04
2023-06-17T05:11:03.937Z,15.22
2023-06-17T05:13:32.192Z,15.38
2023-06-17T05:16:00.150Z,15.44
2023-06-17T05:18:28.383Z,15.35
2023-06-17T05:20:56.146Z,15.59
2023-06-17T05:23:25.577Z,15.59
2023-06-17T05:25:53.631Z,15.75
2023-06-17T05:28:21.548Z,15.75
2023-06-17T05:30:49.512Z,16.00
2023-06-17T05:33:17.915Z,15.89
2023-06-17T05:35:45.726Z,15.98
2023-06-17T05:38:13.434Z,16.11
2023-06-17T05:40:41.536Z,16.20
2023-06-17T05:43:09.263Z,16.46
2023-06-17T05:45:36.963Z,16.44
2023-06-17T05:48:05.609Z,16.61
2023-06-17T05:50:34.396Z,16.58
2023-06-17T05:53:02.334Z,16.58
2023-06-17T05:55:30.243Z,16.73
2023-06-17T05:57:58.180Z,16.86
2023-06-17T06:00:26.126Z,17.00
2023-06-17T06:02:55.214Z,17.16
2023-06-17T06:05:24.043Z,17.14
2023-06-17T06:07:51.817Z,17.12
2023-06-17T06:10:20.081Z,17.19
2023-06-17T06:12:48.120Z,17.32
2023-06-17T06:15:15.916Z,17.44
2023-06-17T06:17:43.901Z,17.32
2023-06-17T06:20:13.598Z,17.40
2023-06-17T06:22:41.225Z,17.46
2023-06-17T06:25:09.396Z,17.60
2023-06-17T06:27:37.213Z,17.70
2023-06-17T06:30:05.714Z,17.65
2023-06-17T06:32:34.356Z,17.90
2023-06-17T06:35:03.201Z,17.90
2023-06-17T06:37:31.235Z,17.84
2023-06-17T06:40:01.061Z,18.04
2023-06-17T06:42:29.994Z,18.29
2023-06-17T06:45:01.415Z,18.37
2023-06-17T06:47:29.530Z,18.39
2023-06-17T06:49:58.339Z,18.46
2023-06-17T06:52:26.039Z,18.45
2023-06-17T06:54:54.052Z,18.64
2023-06-17T06:57:22.011Z,18.69
2023-06-17T06:59:52.282Z,18.65
2023-06-17T07:02:20.926Z,18.68
2023-06-17T07:04:48.661Z,18.60
2023-06-17T07:07:16.600Z,18.61
2023-06-17T07:09:44.746Z,18.89
2023-06-17T07:12:12.908Z,18.92
2023-06-17T07:14:40.727Z,19.14
2023-06-17T07:17:08.700Z,18.95
2023-06-17T07:19:36.461Z,19.10
2023-06-17T07:22:04.625Z,19.21
2023-06-17T07:24:32.879Z,19.25
2023-06-17T07:27:00.670Z,19.41
2023-06-17T07:29:28.545Z,19.48
2023-06-17T07:31:56.767Z,19.55
2023-06-17T07:34:24.576Z,19.54
2023-06-17T07:36:52.317Z,19.70
2023-06-17T07:39:20.490Z,19.77
2023-06-17T07:41:48.260Z,19.98
2023-06-17T07:44:15.888Z,20.00
2023-06-17T07:46:43.938Z,20.24
2023-06-17T07:49:11.651Z,20.34
2023-06-17T07:51:39.268Z,20.44
2023-06-17T07:54:07.265Z,20.33
2023-06-17T07:56:34.876Z,20.72
2023-06-17T07:59:02.501Z,20.72
2023-06-17T08:01:30.465Z,21.00
2023-06-17T08:03:58.545Z,21.02
2023-06-17T08:06:26.145Z,20.96
2023-06-17T08:08:53.710Z,21.25
2023-06-17T08:11:21.650Z,20.98
2023-06-17T08:13:49.457Z,20.98
2023-06-17T08:16:17.633Z,21.11
2023-06-17T08:18:45.832Z,21.38
2023-06-17T08:21:13.495Z,21.58
2023-06-17T08:23:41.185Z,21.63
2023-06-17T08:26:09.089Z,21.39
2023-06-17T08:28:36.621Z,21.82
2023-06-17T08:31:04.251Z,21.89
2023-06-17T08:33:32.377Z,21.71
2023-06-17T08:36:00.093Z,22.11
2023-06-17T08:38:27.779Z,22.07
2023-06-17T08:40:55.790Z,22.19
2023-06-17T08:43:25.258Z,22.71
2023-06-17T08:45:53.488Z,22.63
2023-06-17T08:48:21.520Z,22.82
2023-06-17T08:50:50.468Z,22.83
2023-06-17T08:53:18.169Z,23.00
2023-06-17T08:55:46.170Z,22.81
2023-06-17T08:58:13.823Z,22.90
2023-06-17T09:00:41.512Z,23.09
2023-06-17T09:03:09.635Z,22.86
2023-06-17T09:05:37.309Z,23.09
2023-06-17T09:08:06.015Z,22.93
2023-06-17T09:10:44.824Z,23.04
2023-06-17T09:13:12.486Z,23.78
2023-06-17T09:15:41.268Z,23.43
2023-06-17T09:18:09.138Z,23.30
2023-06-17T09:20:36.851Z,23.45
2023-06-17T09:23:04.779Z,23.23
2023-06-17T09:25:35.253Z,23.56
2023-06-17T09:28:15.959Z,23.60
2023-06-17T09:30:52.048Z,23.47
2023-06-17T09:33:24.197Z,23.58
2023-06-17T09:36:10.479Z,23.62
2023-06-17T09:38:39.086Z,23.75
2023-06-17T09:41:07.652Z,24.39
2023-06-17T09:43:35.243Z,24.49
2023-06-17T09:46:06.257Z,24.89
2023-06-17T09:48:36.696Z,25.00
2023-06-17T09:51:04.606Z,24.99
2023-06-17T09:53:34.370Z,24.87
2023-06-17T09:56:03.656Z,24.85
2023-06-17T09:58:31.998Z,24.66
2023-06-17T10:01:01.969Z,24.40
2023-06-17T10:03:30.257Z,24.61
2023-06-17T10:06:04.541Z,24.75
2023-06-17T10:08:32.754Z,24.42
2023-06-17T10:11:01.336Z,24.87
2023-06-17T10:13:40.445Z,25.26
2023-06-17T10:16:11.774Z,24.91
2023-06-17T10:18:41.061Z,25.31
2023-06-17T10:21:10.146Z,24.95
2023-06-17T10:23:38.788Z,24.59
2023-06-17T10:26:12.286Z,24.79
2023-06-17T10:28:58.800Z,25.44
2023-06-17T10:31:29.100Z,25.53
2023-06-17T10:33:58.195Z,25.57
2023-06-17T10:36:27.396Z,25.32
2023-06-17T10:38:56.580Z,25.15
2023-06-17T10:41:39.841Z,25.70
2023-06-17T10:44:26.230Z,25.27
2023-06-17T10:46:57.590Z,25.70
2023-06-17T10:49:25.647Z,25.63
2023-06-17T10:51:58.788Z,25.28
2023-06-17T10:54:31.113Z,25.27
2023-06-17T10:57:01.487Z,25.65
2023-06-17T10:59:31.117Z,25.67
2023-06-17T11:02:02.708Z,25.74
2023-06-17T11:04:35.042Z,25.80
2023-06-17T11:07:03.244Z,25.42
2023-06-17T11:09:33.322Z,25.64
2023-06-17T11:12:02.511Z,25.47
2023-06-17T11:14:31.630Z,25.85
2023-06-17T11:16:59.578Z,25.78
2023-06-17T11:19:27.231Z,26.15
2023-06-17T11:21:58.460Z,26.57
2023-06-17T11:24:26.853Z,25.89
2023-06-17T11:26:55.709Z,26.18
2023-06-17T11:29:23.952Z,26.05
2023-06-17T11:31:51.970Z,25.90
2023-06-17T11:34:19.700Z,26.34
2023-06-17T11:36:53.576Z,26.60
2023-06-17T11:39:30.190Z,26.61
2023-06-17T11:41:58.226Z,26.73
2023-06-17T11:44:26.257Z,26.23
2023-06-17T11:46:56.155Z,25.67
2023-06-17T11:49:30.481Z,25.52
2023-06-17T11:52:06.009Z,25.69
2023-06-17T11:54:34.863Z,25.87
2023-06-17T11:57:02.952Z,25.57
2023-06-17T11:59:31.495Z,25.78
2023-06-17T12:01:59.239Z,25.78
2023-06-17T12:04:28.468Z,25.58
2023-06-17T12:06:56.304Z,25.54
2023-06-17T12:09:24.017Z,25.42
2023-06-17T12:11:52.038Z,25.47
2023-06-17T12:14:20.667Z,25.66
2023-06-17T12:16:48.319Z,26.00
2023-06-17T12:19:22.679Z,26.28
2023-06-17T12:21:51.186Z,26.18
2023-06-17T12:24:20.864Z,26.62
2023-06-17T12:26:49.736Z,27.42
2023-06-17T12:29:25.628Z,27.35
2023-06-17T12:31:54.743Z,27.19
2023-06-17T12:34:22.510Z,27.18
2023-06-17T12:36:50.210Z,27.55
2023-06-17T12:39:18.266Z,27.10
2023-06-17T12:41:46.128Z,27.24
2023-06-17T12:44:13.914Z,28.19
2023-06-17T12:46:41.799Z,28.42
2023-06-17T12:49:09.549Z,28.31
2023-06-17T12:51:37.278Z,28.42
2023-06-17T12:54:05.369Z,28.71
2023-06-17T12:56:33.258Z,28.77
2023-06-17T12:59:00.964Z,28.17
2023-06-17T13:01:28.971Z,27.75
2023-06-17T13:03:56.706Z,27.64
2023-06-17T13:06:24.431Z,27.83
2023-06-17T13:08:52.477Z,27.57
2023-06-17T13:11:20.127Z,27.62
2023-06-17T13:13:47.737Z,27.47
2023-06-17T13:16:15.737Z,27.62
2023-06-17T13:18:43.572Z,28.00
2023-06-17T13:21:11.250Z,27.73
2023-06-17T13:23:39.204Z,27.41
2023-06-17T13:26:06.841Z,27.53
2023-06-17T13:28:34.671Z,27.40
2023-06-17T13:31:02.703Z,26.90
2023-06-17T13:33:30.356Z,27.35
2023-06-17T13:35:58.070Z,27.46
2023-06-17T13:38:25.924Z,27.38
2023-06-17T13:40:53.570Z,27.77
2023-06-17T13:43:21.305Z,27.62
2023-06-17T13:45:49.428Z,27.85
2023-06-17T13:48:18.202Z,27.77
2023-06-17T13:50:45.863Z,27.62
2023-06-17T13:53:14.236Z,27.41
2023-06-17T13:55:41.901Z,27.42
2023-06-17T13:58:09.538Z,27.50
2023-06-17T14:00:37.486Z,27.35
2023-06-17T14:03:05.530Z,27.09
2023-06-17T14:05:33.478Z,27.03
2023-06-17T14:08:01.186Z,27.23
2023-06-17T14:10:29.299Z,27.07
2023-06-17T14:12:56.930Z,27.57
2023-06-17T14:15:24.658Z,27.55
2023-06-17T14:17:52.640Z,26.65
2023-06-17T14:20:20.620Z,27.28
2023-06-17T14:23:05.830Z,27.15
2023-06-17T14:25:35.530Z,27.29
2023-06-17T14:28:03.404Z,27.42
2023-06-17T14:30:31.125Z,27.45
2023-06-17T14:32:59.119Z,26.84
2023-06-17T14:35:26.872Z,26.12
2023-06-17T14:37:54.524Z,26.48
2023-06-17T14:40:22.621Z,27.48
2023-06-17T14:42:50.432Z,26.92
2023-06-17T14:45:18.027Z,27.24
2023-06-17T14:47:46.173Z,27.59
2023-06-17T14:50:14.266Z,27.50
2023-06-17T14:52:41.953Z,27.78
2023-06-17T14:55:10.122Z,27.52
2023-06-17T14:57:37.826Z,28.10
2023-06-17T15:02:53.454Z,27.87
2023-06-17T15:05:21.829Z,28.09
2023-06-17T15:07:50.037Z,28.24
2023-06-17T15:10:17.829Z,27.41
2023-06-17T15:12:45.676Z,26.88
2023-06-17T15:15:14.205Z,26.59
2023-06-17T15:17:42.281Z,26.53
2023-06-17T15:20:10.364Z,26.36
2023-06-17T15:22:38.661Z,26.26
2023-06-17T15:25:06.586Z,26.14
2023-06-17T15:27:34.469Z,26.31
2023-06-17T15:30:02.665Z,26.33
2023-06-17T15:32:30.372Z,26.48
2023-06-17T15:34:59.372Z,26.42
2023-06-17T15:37:27.383Z,26.65
2023-06-17T15:39:55.106Z,26.71
2023-06-17T15:42:24.481Z,26.56
2023-06-17T15:44:52.942Z,26.58
2023-06-17T15:47:23.040Z,26.17
2023-06-17T15:49:51.636Z,26.32
2023-06-17T15:52:22.146Z,26.18
2023-06-17T15:54:49.915Z,26.11
2023-06-17T15:57:17.492Z,26.36
2023-06-17T15:59:45.684Z,26.65
2023-06-17T16:02:13.448Z,26.59
2023-06-17T16:04:41.900Z,26.28
2023-06-17T16:07:13.925Z,26.10
2023-06-17T16:09:44.330Z,26.12
2023-06-17T16:12:12.170Z,25.75
2023-06-17T16:14:39.719Z,25.98
2023-06-17T16:17:09.322Z,25.93
2023-06-17T16:19:37.463Z,26.17
2023-06-17T16:22:06.739Z,26.14
2023-06-17T16:24:34.869Z,25.80
2023-06-17T16:27:02.594Z,25.84
2023-06-17T16:29:30.722Z,25.74
2023-06-17T16:31:58.653Z,25.45
2023-06-17T16:34:26.275Z,25.42
2023-06-17T16:36:53.925Z,25.45
2023-06-17T16:39:21.966Z,25.50
2023-06-17T16:41:49.863Z,25.53
2023-06-17T16:44:17.469Z,25.22
2023-06-17T16:46:47.395Z,25.44
2023-06-17T16:49:15.253Z,25.23
2023-06-17T16:51:42.822Z,25.12
2023-06-17T16:54:11.165Z,24.99
2023-06-17T16:56:38.818Z,24.81
2023-06-17T16:59:06.502Z,24.66
2023-06-17T17:01:34.834Z,24.58
2023-06-17T17:04:09.587Z,24.46
2023-06-17T17:06:41.271Z,24.64
2023-06-17T17:09:09.239Z,24.69
2023-06-17T17:11:37.160Z,24.50
2023-06-17T17:14:04.824Z,24.36
2023-06-17T17:16:32.697Z,24.02
2023-06-17T17:19:00.659Z,24.18
2023-06-17T17:21:28.322Z,24.24
2023-06-17T17:23:56.062Z,24.09
2023-06-17T17:26:24.061Z,24.07
2023-06-17T17:28:51.728Z,23.97
2023-06-17T17:31:19.471Z,24.02
2023-06-17T17:33:50.069Z,23.97
2023-06-17T17:36:18.524Z,23.70
2023-06-17T17:38:46.973Z,23.95
2023-06-17T17:41:14.604Z,23.57
2023-06-17T17:43:42.399Z,23.43
2023-06-17T17:46:10.475Z,23.56
2023-06-17T17:48:39.440Z,23.46
2023-06-17T17:51:07.850Z,23.17
2023-06-17T17:53:36.148Z,23.21
2023-06-17T17:56:04.572Z,22.98
2023-06-17T17:58:32.495Z,22.98
2023-06-17T18:01:02.516Z,22.84
2023-06-17T18:03:31.514Z,22.92
2023-06-17T18:05:59.503Z,22.80
2023-06-17T18:08:27.224Z,22.76
2023-06-17T18:10:55.268Z,22.66
2023-06-17T18:13:22.918Z,22.77
2023-06-17T18:15:50.815Z,22.48
2023-06-17T18:18:18.795Z,22.42
2023-06-17T18:20:46.500Z,22.29
2023-06-17T18:23:14.113Z,22.15
2023-06-17T18:25:42.148Z,22.20
2023-06-17T18:28:09.765Z,22.21
2023-06-17T18:30:37.535Z,22.22
2023-06-17T18:33:05.618Z,22.14
2023-06-17T18:35:33.385Z,22.16
2023-06-17T18:38:00.995Z,22.12
2023-06-17T18:40:28.930Z,21.70
2023-06-17T18:42:56.693Z,21.79
2023-06-17T18:45:24.405Z,21.82
2023-06-17T18:47:52.488Z,21.70
2023-06-17T18:50:20.496Z,21.49
2023-06-17T18:52:48.346Z,21.63
2023-06-17T18:55:16.320Z,21.53
2023-06-17T18:57:44.299Z,21.53
2023-06-17T19:00:12.410Z,21.51
2023-06-17T19:02:40.411Z,21.49
2023-06-17T19:05:08.692Z,21.43
2023-06-17T19:07:36.335Z,21.19
2023-06-17T19:10:04.688Z,20.95
2023-06-17T19:12:32.572Z,21.07
2023-06-17T19:15:00.383Z,20.96
2023-06-17T19:17:28.401Z,21.00
2023-06-17T19:19:56.282Z,21.56
2023-06-17T19:22:24.033Z,21.55
2023-06-17T19:24:51.962Z,21.27
2023-06-17T19:27:19.620Z,20.67
2023-06-17T19:29:47.255Z,20.47
2023-06-17T19:32:15.163Z,20.41
2023-06-17T19:34:42.836Z,20.44
2023-06-17T19:37:10.496Z,20.33
2023-06-17T19:39:38.436Z,20.09
2023-06-17T19:42:06.226Z,20.04
2023-06-17T19:44:34.132Z,19.90
2023-06-17T19:47:02.464Z,19.85
2023-06-17T19:49:30.395Z,19.73
2023-06-17T19:51:58.221Z,19.65
2023-06-17T19:54:26.302Z,19.59
2023-06-17T19:56:54.510Z,19.61
2023-06-17T19:59:22.242Z,19.45
2023-06-17T20:01:51.209Z,19.43
2023-06-17T20:04:20.194Z,19.42
2023-06-17T20:06:47.921Z,19.26
2023-06-17T20:09:15.850Z,19.19
2023-06-17T20:11:43.829Z,19.08
2023-06-17T20:14:11.730Z,18.93
2023-06-17T20:16:39.565Z,18.76
2023-06-17T20:19:07.788Z,18.85
2023-06-17T20:21:35.411Z,18.73
2023-06-17T20:24:03.539Z,18.65
2023-06-17T20:26:31.980Z,18.84
2023-06-17T20:28:59.821Z,18.77
2023-06-17T20:31:27.737Z,18.41
2023-06-17T20:33:58.638Z,18.26
2023-06-17T20:36:26.309Z,18.16
2023-06-17T20:38:54.178Z,18.61
2023-06-17T20:41:22.263Z,19.19
2023-06-17T20:43:50.085Z,18.84
2023-06-17T20:46:17.978Z,18.65
2023-06-17T20:48:46.078Z,18.54
2023-06-17T20:51:13.811Z,18.60
2023-06-17T20:53:41.578Z,18.44
2023-06-17T20:56:09.952Z,18.44
2023-06-17T20:58:38.017Z,18.63
2023-06-17T21:01:05.869Z,18.67
2023-06-17T21:03:34.227Z,17.81
2023-06-17T21:06:01.938Z,18.40
2023-06-17T21:08:29.726Z,18.52
2023-06-17T21:10:59.400Z,18.41
2023-06-17T21:13:27.428Z,18.46
2023-06-17T21:15:55.407Z,18.56
2023-06-17T21:18:23.722Z,18.53
2023-06-17T21:20:51.577Z,18.35
2023-06-17T21:23:19.325Z,18.35
2023-06-17T21:25:48.424Z,18.33
2023-06-17T21:28:16.592Z,18.69
2023-06-17T21:30:44.309Z,18.47
2023-06-17T21:33:12.473Z,18.27
2023-06-17T21:35:40.245Z,18.24
2023-06-17T21:38:08.039Z,18.02
2023-06-17T21:40:36.156Z,18.20
2023-06-17T21:43:04.075Z,18.25
2023-06-17T21:45:32.192Z,18.00
2023-06-17T21:48:00.430Z,17.61
2023-06-17T21:50:28.805Z,17.36
2023-06-17T21:52:56.708Z,17.61
2023-06-17T21:55:24.694Z,17.78
2023-06-17T21:57:52.529Z,17.78
2023-06-17T22:00:20.546Z,17.77
2023-06-17T22:02:48.943Z,17.44
2023-06-17T22:05:16.605Z,17.53
2023-06-17T22:07:44.336Z,17.47
2023-06-17T22:10:12.445Z,17.63
2023-06-17T22:12:40.100Z,17.64
2023-06-17T22:15:08.117Z,17.58
2023-06-17T22:17:35.968Z,17.42
2023-06-17T22:20:04.057Z,17.33
2023-06-17T22:22:32.328Z,17.24
2023-06-17T22:25:00.228Z,17.16
2023-06-17T22:27:27.825Z,16.54
2023-06-17T22:29:55.436Z,17.03
2023-06-17T22:32:23.442Z,17.12
2023-06-17T22:34:51.181Z,17.05
2023-06-17T22:37:18.853Z,17.04
2023-06-17T22:39:46.825Z,16.92
2023-06-17T22:42:14.466Z,16.80
2023-06-17T22:44:43.578Z,16.74
2023-06-17T22:47:11.525Z,16.76
2023-06-17T22:49:39.265Z,16.73
2023-06-17T22:52:07.163Z,16.76
2023-06-17T22:54:35.303Z,16.05
2023-06-17T22:57:03.025Z,15.69
2023-06-17T22:59:30.669Z,15.80
2023-06-17T23:02:00.491Z,15.85
2023-06-17T23:06:59.348Z,16.34
2023-06-17T23:09:27.324Z,16.47
2023-06-17T23:11:55.031Z,16.31
2023-06-17T23:14:22.841Z,16.31
2023-06-17T23:16:51.663Z,16.25
2023-06-17T23:19:19.483Z,16.35
2023-06-17T23:21:47.106Z,16.37
2023-06-17T23:24:16.622Z,16.24
2023-06-17T23:26:44.348Z,16.20
2023-06-17T23:29:13.721Z,16.19
2023-06-17T23:31:41.638Z,15.90
2023-06-17T23:34:09.316Z,16.16
2023-06-17T23:36:36.911Z,16.14
2023-06-17T23:39:04.835Z,16.42
2023-06-17T23:41:32.765Z,16.41
2023-06-17T23:44:00.473Z,16.55
2023-06-17T23:46:28.452Z,16.64
2023-06-17T23:48:56.193Z,16.73
2023-06-17T23:51:23.896Z,16.78
2023-06-17T23:53:51.886Z,16.83
2023-06-17T23:56:19.573Z,16.95
2023-06-17T23:58:47.165Z,16.96
